Time;durP1;ratioP1;P1;durP2;ratioP2;P2;SDS_P1;SDS_P2;PMS_P1;PMS_P2;Temp;Humidity;BMP_temperature;BMP_pressure;BME280_temperature;BME280_humidity;BME280_pressure;Samples;Min_cycle;Max_cycle;Signal;HPM_P1;HPM_P2
2023/07/26 07:31:23;;;;;;;2.25;1.17;;;;;;;;;;5111770;27;20512;-60
2023/07/26 07:33:49;;;;;;;2.50;1.33;;;;;;;;;;5100672;28;20513;-60
2023/07/26 07:36:20;;;;;;;5.23;1.70;;;;;;;;;;5100506;27;20036;-61
2023/07/26 07:38:46;;;;;;;7.25;1.60;;;;;;;;;;5100209;28;20283;-58
2023/07/26 07:41:12;;;;;;;2.70;1.40;;;;;;;;;;5101376;28;20074;-52
2023/07/26 07:43:38;;;;;;;1.83;1.33;;;;;;;;;;5105520;28;20092;-53
2023/07/26 07:46:03;;;;;;;3.60;1.67;;;;;;;;;;5107977;28;20023;-57
2023/07/26 07:48:29;;;;;;;2.47;1.40;;;;;;;;;;5104566;28;20031;-55
2023/07/26 07:50:54;;;;;;;4.05;1.60;;;;;;;;;;5094869;28;20050;-55
2023/07/26 07:53:20;;;;;;;1.77;1.20;;;;;;;;;;5098856;28;20402;-54
2023/07/26 07:55:45;;;;;;;3.33;1.45;;;;;;;;;;5095532;28;20471;-58
2023/07/26 07:58:11;;;;;;;7.28;2.95;;;;;;;;;;5093955;28;21049;-54
2023/07/26 08:00:36;;;;;;;83.17;14.93;;;;;;;;;;5099077;28;20100;-55
2023/07/26 08:03:03;;;;;;;2.40;1.50;;;;;;;;;;5092792;27;20031;-55
2023/07/26 08:05:28;;;;;;;4.20;1.77;;;;;;;;;;5095339;28;20015;-58
2023/07/26 08:07:54;;;;;;;2.13;1.33;;;;;;;;;;5113796;28;20042;-56
2023/07/26 08:10:20;;;;;;;2.42;1.40;;;;;;;;;;5112367;28;20321;-53
2023/07/26 08:12:45;;;;;;;2.95;1.60;;;;;;;;;;5112361;28;20031;-54
2023/07/26 08:15:10;;;;;;;1.77;1.38;;;;;;;;;;5103806;28;20024;-56
2023/07/26 08:17:36;;;;;;;2.37;1.40;;;;;;;;;;5100173;28;20034;-58
2023/07/26 08:20:01;;;;;;;3.10;1.30;;;;;;;;;;5107370;28;20283;-60
2023/07/26 08:22:26;;;;;;;2.42;1.58;;;;;;;;;;5110204;28;20447;-59
2023/07/26 08:24:52;;;;;;;1.47;1.37;;;;;;;;;;5092858;28;20015;-59
2023/07/26 08:27:17;;;;;;;2.72;1.52;;;;;;;;;;5106626;28;20255;-61
2023/07/26 08:29:42;;;;;;;5.43;1.50;;;;;;;;;;5089899;28;20063;-63
2023/07/26 08:32:08;;;;;;;4.03;1.40;;;;;;;;;;5103429;28;20011;-62
2023/07/26 08:34:33;;;;;;;3.35;1.38;;;;;;;;;;5103128;28;20103;-61
2023/07/26 08:36:58;;;;;;;2.73;1.33;;;;;;;;;;5094503;28;20031;-60
2023/07/26 08:39:23;;;;;;;4.70;1.70;;;;;;;;;;5104758;28;20024;-57
2023/07/26 08:41:49;;;;;;;2.30;1.45;;;;;;;;;;5096390;28;20541;-58
2023/07/26 08:44:15;;;;;;;3.63;1.40;;;;;;;;;;5089855;28;20023;-55
2023/07/26 08:46:40;;;;;;;2.92;1.38;;;;;;;;;;5082480;28;20016;-59
2023/07/26 08:49:06;;;;;;;13.55;2.05;;;;;;;;;;5089931;28;20529;-57
2023/07/26 08:51:32;;;;;;;3.72;1.50;;;;;;;;;;5079677;28;20031;-62
2023/07/26 08:53:58;;;;;;;2.83;1.30;;;;;;;;;;5087664;28;20013;-59
2023/07/26 08:56:24;;;;;;;4.93;1.20;;;;;;;;;;5091038;28;20020;-58
2023/07/26 08:58:50;;;;;;;2.78;1.23;;;;;;;;;;5073458;28;20364;-57
2023/07/26 09:01:15;;;;;;;2.53;1.20;;;;;;;;;;5083783;28;20035;-60
2023/07/26 09:03:41;;;;;;;2.70;1.15;;;;;;;;;;5083103;28;21554;-63
2023/07/26 09:06:06;;;;;;;3.38;1.20;;;;;;;;;;5093451;28;20063;-62
2023/07/26 09:08:32;;;;;;;4.38;1.40;;;;;;;;;;5091466;28;20487;-59
2023/07/26 09:10:57;;;;;;;3.65;1.33;;;;;;;;;;5102027;28;20023;-62
2023/07/26 09:13:22;;;;;;;2.55;1.40;;;;;;;;;;5083378;28;20540;-60
2023/07/26 09:15:49;;;;;;;5.73;1.50;;;;;;;;;;5081975;28;20089;-61
2023/07/26 09:18:14;;;;;;;1.98;1.42;;;;;;;;;;5091319;28;20411;-65
2023/07/26 09:20:40;;;;;;;1.50;1.40;;;;;;;;;;5070758;28;20106;-62
2023/07/26 09:23:05;;;;;;;1.95;1.33;;;;;;;;;;5086417;28;21484;-65
2023/07/26 09:25:38;;;;;;;3.53;1.47;;;;;;;;;;5078134;28;20044;-59
2023/07/26 09:28:04;;;;;;;4.05;1.33;;;;;;;;;;5085163;28;20645;-57
2023/07/26 09:30:33;;;;;;;3.38;1.55;;;;;;;;;;5065190;28;20144;-63
2023/07/26 09:33:00;;;;;;;3.50;1.20;;;;;;;;;;5073659;28;20035;-60
2023/07/26 09:35:25;;;;;;;1.90;1.23;;;;;;;;;;5071883;28;20039;-60
2023/07/26 09:37:51;;;;;;;4.30;1.43;;;;;;;;;;5086202;28;20032;-61
2023/07/26 09:40:16;;;;;;;2.30;1.50;;;;;;;;;;5085650;28;20375;-61
2023/07/26 09:42:43;;;;;;;3.03;1.63;;;;;;;;;;5085382;28;20035;-61
2023/07/26 09:45:18;;;;;;;1.85;1.63;;;;;;;;;;5080925;28;20115;-61
2023/07/26 09:47:44;;;;;;;1.40;1.30;;;;;;;;;;5085847;28;20078;-62
2023/07/26 09:50:35;;;;;;;4.70;1.38;;;;;;;;;;5086212;28;20471;-62
2023/07/26 09:53:02;;;;;;;3.33;1.40;;;;;;;;;;4982503;28;20038;-59
2023/07/26 09:55:27;;;;;;;2.00;1.60;;;;;;;;;;4983682;28;20562;-61
2023/07/26 09:57:54;;;;;;;4.13;1.50;;;;;;;;;;4982804;28;20030;-61
2023/07/26 10:00:20;;;;;;;2.50;1.60;;;;;;;;;;4984964;28;20072;-61
2023/07/26 10:02:48;;;;;;;2.20;1.52;;;;;;;;;;4980683;28;20034;-62
2023/07/26 10:05:15;;;;;;;4.38;1.67;;;;;;;;;;4983411;28;20040;-62
2023/07/26 10:07:40;;;;;;;2.83;1.50;;;;;;;;;;4983312;28;20073;-62
2023/07/26 10:10:06;;;;;;;3.03;1.30;;;;;;;;;;4976694;28;20121;-61
2023/07/26 10:12:32;;;;;;;2.05;1.40;;;;;;;;;;4976922;28;20030;-62
2023/07/26 10:14:58;;;;;;;2.20;1.85;;;;;;;;;;4982812;28;20033;-61
2023/07/26 10:17:24;;;;;;;2.72;2.15;;;;;;;;;;4983103;28;20038;-61
2023/07/26 10:19:51;;;;;;;3.13;1.70;;;;;;;;;;4981383;28;20121;-60
2023/07/26 10:22:16;;;;;;;2.97;1.63;;;;;;;;;;4982681;28;20041;-60
2023/07/26 10:24:44;;;;;;;4.15;1.98;;;;;;;;;;4978330;28;20042;-58
2023/07/26 10:27:10;;;;;;;3.17;1.80;;;;;;;;;;4932503;28;20469;-61
2023/07/26 10:29:35;;;;;;;4.07;1.55;;;;;;;;;;5017832;28;20044;-61
2023/07/26 10:32:05;;;;;;;2.53;1.85;;;;;;;;;;5085217;28;20074;-62
2023/07/26 10:34:30;;;;;;;2.80;1.90;;;;;;;;;;5085623;28;20020;-62
2023/07/26 10:36:55;;;;;;;2.53;1.63;;;;;;;;;;5084792;28;20077;-63
2023/07/26 10:39:33;;;;;;;2.65;1.67;;;;;;;;;;5084951;28;20447;-63
2023/07/26 10:41:59;;;;;;;2.17;1.65;;;;;;;;;;5085198;28;20554;-62
2023/07/26 10:44:24;;;;;;;4.00;1.67;;;;;;;;;;5084107;28;20041;-62
2023/07/26 10:47:03;;;;;;;3.80;1.75;;;;;;;;;;5085487;28;20107;-61
2023/07/26 10:49:33;;;;;;;3.63;1.88;;;;;;;;;;5085473;28;20568;-62
2023/07/26 10:52:00;;;;;;;4.07;1.70;;;;;;;;;;5085545;28;20020;-60
2023/07/26 10:54:34;;;;;;;1.80;1.40;;;;;;;;;;5085492;28;20433;-63
2023/07/26 10:57:13;;;;;;;2.55;1.38;;;;;;;;;;5085013;28;20737;-61
2023/07/26 10:59:49;;;;;;;3.53;1.52;;;;;;;;;;5074982;28;20024;-60
2023/07/26 11:02:15;;;;;;;3.20;1.40;;;;;;;;;;5082837;28;20717;-61
2023/07/26 11:04:42;;;;;;;2.65;1.10;;;;;;;;;;5083396;28;20429;-61
2023/07/26 11:07:08;;;;;;;4.05;1.40;;;;;;;;;;5084601;28;20115;-60
2023/07/26 11:09:34;;;;;;;5.47;1.40;;;;;;;;;;5087819;28;20070;-62
2023/07/26 11:11:59;;;;;;;2.08;1.42;;;;;;;;;;5082366;28;20043;-61
2023/07/26 11:14:25;;;;;;;2.08;1.60;;;;;;;;;;5078749;28;20029;-59
2023/07/26 11:16:51;;;;;;;3.42;1.05;;;;;;;;;;5084159;28;20024;-60
2023/07/26 11:19:16;;;;;;;8.85;1.50;;;;;;;;;;5084388;28;20031;-61
2023/07/26 11:21:43;;;;;;;1.50;1.33;;;;;;;;;;5092333;28;20806;-59
2023/07/26 11:24:09;;;;;;;2.63;1.70;;;;;;;;;;5087084;28;20694;-62
2023/07/26 11:26:44;;;;;;;1.98;1.50;;;;;;;;;;5090944;28;20046;-60
2023/07/26 11:29:10;;;;;;;4.80;1.65;;;;;;;;;;5084992;28;20186;-63
2023/07/26 11:31:36;;;;;;;3.08;1.30;;;;;;;;;;5085078;28;20110;-61
2023/07/26 11:34:18;;;;;;;1.40;1.20;;;;;;;;;;5066051;28;20467;-60
2023/07/26 11:36:44;;;;;;;2.38;1.35;;;;;;;;;;5091437;28;20027;-58
2023/07/26 11:39:19;;;;;;;2.58;1.30;;;;;;;;;;5093856;28;20031;-60
2023/07/26 11:41:44;;;;;;;4.07;1.60;;;;;;;;;;5085632;28;20085;-60
2023/07/26 11:44:10;;;;;;;2.42;1.50;;;;;;;;;;5094638;28;20113;-60
2023/07/26 11:46:35;;;;;;;1.13;1.02;;;;;;;;;;5084686;28;20509;-55
2023/07/26 11:49:00;;;;;;;2.47;1.50;;;;;;;;;;5086409;28;20787;-60
2023/07/26 11:51:25;;;;;;;1.73;1.27;;;;;;;;;;5064920;28;21088;-59
2023/07/26 11:53:54;;;;;;;6.07;1.40;;;;;;;;;;5034100;28;20269;-58
2023/07/26 11:56:25;;;;;;;4.03;1.52;;;;;;;;;;5068922;28;20355;-60
2023/07/26 11:58:50;;;;;;;5.90;1.30;;;;;;;;;;5076257;28;20055;-59
2023/07/26 12:01:17;;;;;;;8.83;1.40;;;;;;;;;;5080658;28;20406;-60
2023/07/26 12:03:43;;;;;;;2.05;1.25;;;;;;;;;;5078312;28;20257;-60
2023/07/26 12:06:09;;;;;;;5.75;1.98;;;;;;;;;;5080836;28;20436;-57
2023/07/26 12:08:35;;;;;;;2.17;1.10;;;;;;;;;;5086115;28;20031;-58
2023/07/26 12:11:05;;;;;;;1.95;1.42;;;;;;;;;;5078892;28;20028;-58
2023/07/26 12:13:32;;;;;;;1.90;1.20;;;;;;;;;;5096352;28;20036;-59
2023/07/26 12:16:01;;;;;;;3.45;1.35;;;;;;;;;;5091430;28;20027;-63
2023/07/26 12:18:26;;;;;;;5.72;1.45;;;;;;;;;;5075765;28;20034;-61
2023/07/26 12:20:56;;;;;;;2.63;1.50;;;;;;;;;;5083674;28;20031;-65
2023/07/26 12:23:21;;;;;;;12.00;1.88;;;;;;;;;;5081881;28;20028;-65
2023/07/26 12:25:51;;;;;;;2.58;1.48;;;;;;;;;;5084766;28;20110;-62
2023/07/26 12:28:16;;;;;;;1.23;1.13;;;;;;;;;;5082172;28;20455;-67
2023/07/26 12:30:42;;;;;;;2.60;1.40;;;;;;;;;;5083345;28;20051;-62
2023/07/26 12:33:11;;;;;;;4.90;1.10;;;;;;;;;;5086520;28;20305;-63
2023/07/26 12:35:37;;;;;;;4.32;1.20;;;;;;;;;;5086465;28;20287;-62
2023/07/26 12:38:12;;;;;;;9.98;1.60;;;;;;;;;;5087285;28;20031;-64
2023/07/26 12:40:38;;;;;;;1.40;1.27;;;;;;;;;;5086764;28;20077;-64
2023/07/26 12:43:22;;;;;;;2.15;1.30;;;;;;;;;;5079141;28;20571;-63
2023/07/26 12:45:47;;;;;;;4.50;1.60;;;;;;;;;;5075118;28;20023;-61
2023/07/26 12:48:13;;;;;;;2.35;0.98;;;;;;;;;;5081853;28;20029;-60
2023/07/26 12:50:39;;;;;;;1.83;1.40;;;;;;;;;;5080373;28;20024;-59
2023/07/26 12:53:06;;;;;;;1.73;1.30;;;;;;;;;;5095084;28;20020;-61
2023/07/26 12:55:31;;;;;;;3.70;1.10;;;;;;;;;;5067268;28;20388;-61
2023/07/26 12:57:56;;;;;;;2.43;1.10;;;;;;;;;;5084162;28;20017;-61
2023/07/26 13:00:22;;;;;;;4.43;1.70;;;;;;;;;;5082751;28;20275;-59
2023/07/26 13:02:48;;;;;;;1.50;1.13;;;;;;;;;;5093750;28;20257;-57
2023/07/26 13:05:13;;;;;;;4.13;1.00;;;;;;;;;;5078244;28;20044;-59
2023/07/26 13:07:38;;;;;;;1.40;1.07;;;;;;;;;;5086861;28;20257;-60
2023/07/26 13:10:04;;;;;;;1.50;1.10;;;;;;;;;;5094111;28;20274;-61
2023/07/26 13:12:29;;;;;;;1.63;1.13;;;;;;;;;;5074141;28;20043;-60
2023/07/26 13:14:54;;;;;;;2.57;1.30;;;;;;;;;;5086694;28;20051;-62
2023/07/26 13:17:19;;;;;;;2.83;1.60;;;;;;;;;;5091251;28;20751;-63
2023/07/26 13:19:45;;;;;;;1.60;1.30;;;;;;;;;;5093113;28;20321;-61
2023/07/26 13:22:10;;;;;;;6.30;1.97;;;;;;;;;;5086068;28;20627;-61
2023/07/26 13:24:35;;;;;;;1.13;1.00;;;;;;;;;;5081709;28;20028;-61
2023/07/26 13:27:01;;;;;;;1.60;1.02;;;;;;;;;;5098448;28;20031;-60
2023/07/26 13:29:26;;;;;;;1.38;0.98;;;;;;;;;;5093395;28;20138;-62
2023/07/26 13:31:51;;;;;;;1.25;1.02;;;;;;;;;;5083499;28;20285;-60
2023/07/26 13:34:18;;;;;;;1.43;1.03;;;;;;;;;;5093116;28;20110;-59
2023/07/26 13:36:43;;;;;;;1.35;0.98;;;;;;;;;;5063960;28;20665;-60
2023/07/26 13:39:08;;;;;;;2.47;0.93;;;;;;;;;;5069023;28;20094;-61
2023/07/26 13:41:34;;;;;;;1.90;1.13;;;;;;;;;;5076332;28;20491;-60
2023/07/26 13:43:59;;;;;;;1.33;1.00;;;;;;;;;;5087563;28;20489;-59
2023/07/26 13:46:24;;;;;;;1.40;1.05;;;;;;;;;;5076678;28;20310;-59
2023/07/26 13:48:50;;;;;;;2.37;1.27;;;;;;;;;;5081920;28;20031;-58
2023/07/26 13:51:15;;;;;;;2.47;1.23;;;;;;;;;;5084334;28;21015;-58
2023/07/26 13:53:40;;;;;;;3.67;1.50;;;;;;;;;;5083389;28;20071;-61
2023/07/26 13:56:05;;;;;;;2.70;1.10;;;;;;;;;;5086851;28;20805;-59
2023/07/26 13:58:31;;;;;;;3.03;1.25;;;;;;;;;;5086485;28;20257;-59
2023/07/26 14:00:56;;;;;;;1.63;1.20;;;;;;;;;;5076598;28;20061;-61
2023/07/26 14:03:21;;;;;;;5.00;1.20;;;;;;;;;;5080297;28;20110;-62
2023/07/26 14:05:47;;;;;;;1.23;1.13;;;;;;;;;;5076545;28;20310;-61
2023/07/26 14:08:12;;;;;;;4.50;1.33;;;;;;;;;;5025928;28;20038;-60
2023/07/26 14:10:37;;;;;;;2.90;1.10;;;;;;;;;;5077012;28;20027;-60
2023/07/26 14:13:02;;;;;;;2.93;1.23;;;;;;;;;;5077543;28;20265;-60
2023/07/26 14:15:28;;;;;;;1.73;0.90;;;;;;;;;;5088506;28;20758;-52
2023/07/26 14:17:53;;;;;;;1.33;1.10;;;;;;;;;;5005466;28;20275;-51
2023/07/26 14:20:18;;;;;;;2.20;0.87;;;;;;;;;;5082501;28;20307;-56
2023/07/26 14:22:43;;;;;;;2.43;1.00;;;;;;;;;;5074312;28;20240;-58
2023/07/26 14:25:09;;;;;;;3.00;0.82;;;;;;;;;;5079064;28;20085;-51
2023/07/26 14:27:34;;;;;;;4.65;0.90;;;;;;;;;;5066269;28;20392;-50
2023/07/26 14:29:59;;;;;;;2.70;1.03;;;;;;;;;;5066866;28;20056;-56
2023/07/26 14:32:24;;;;;;;3.88;0.82;;;;;;;;;;5073671;28;20807;-56
2023/07/26 14:34:50;;;;;;;2.37;0.90;;;;;;;;;;5039387;28;20032;-52
2023/07/26 14:37:17;;;;;;;1.00;0.90;;;;;;;;;;5083827;28;20817;-57
2023/07/26 14:39:43;;;;;;;0.63;0.63;;;;;;;;;;5082955;28;20384;-55
2023/07/26 14:42:08;;;;;;;4.30;1.13;;;;;;;;;;5083536;28;20069;-55
2023/07/26 14:44:33;;;;;;;1.30;0.50;;;;;;;;;;5084364;28;20077;-55
2023/07/26 14:46:59;;;;;;;1.07;0.60;;;;;;;;;;5082849;28;20093;-54
2023/07/26 14:49:24;;;;;;;3.47;0.63;;;;;;;;;;5076766;28;20684;-54
2023/07/26 14:51:49;;;;;;;3.17;0.60;;;;;;;;;;5057414;28;20280;-55
2023/07/26 14:54:14;;;;;;;0.75;0.52;;;;;;;;;;5083768;28;20016;-56
2023/07/26 14:56:40;;;;;;;2.33;0.40;;;;;;;;;;5046780;28;20032;-51
2023/07/26 14:59:05;;;;;;;0.60;0.60;;;;;;;;;;5083441;28;20268;-54
2023/07/26 15:01:30;;;;;;;3.00;1.33;;;;;;;;;;5069392;28;20040;-53
2023/07/26 15:03:59;;;;;;;0.60;0.60;;;;;;;;;;5063170;28;20659;-55
2023/07/26 15:06:24;;;;;;;0.85;0.55;;;;;;;;;;5076963;28;20028;-57
2023/07/26 15:08:50;;;;;;;2.93;0.60;;;;;;;;;;5083265;28;20376;-56
2023/07/26 15:11:15;;;;;;;2.40;0.70;;;;;;;;;;5080911;28;20028;-56
2023/07/26 15:13:40;;;;;;;3.03;0.87;;;;;;;;;;5068220;28;20020;-56
2023/07/26 15:16:05;;;;;;;26.70;11.63;;;;;;;;;;5068078;28;20698;-55
2023/07/26 15:18:31;;;;;;;22.48;11.52;;;;;;;;;;5027642;28;20246;-52
2023/07/26 15:20:56;;;;;;;9.98;4.13;;;;;;;;;;5063750;28;20496;-54
2023/07/26 15:23:21;;;;;;;6.05;2.25;;;;;;;;;;5063184;28;20106;-55
2023/07/26 15:25:47;;;;;;;7.07;2.90;;;;;;;;;;5071055;28;20077;-55
2023/07/26 15:28:12;;;;;;;7.30;2.50;;;;;;;;;;5082737;28;20016;-56
2023/07/26 15:30:38;;;;;;;3.27;1.50;;;;;;;;;;5082451;28;20052;-57
2023/07/26 15:33:04;;;;;;;0.95;0.60;;;;;;;;;;5067982;28;20254;-52
2023/07/26 15:35:31;;;;;;;1.15;0.50;;;;;;;;;;5069479;28;20020;-55
2023/07/26 15:37:56;;;;;;;0.50;0.50;;;;;;;;;;5083335;28;20016;-53
2023/07/26 15:40:21;;;;;;;2.10;0.30;;;;;;;;;;5082737;28;20055;-55
2023/07/26 15:42:46;;;;;;;2.17;0.37;;;;;;;;;;5078124;28;20306;-57
2023/07/26 15:45:12;;;;;;;0.20;0.20;;;;;;;;;;5066642;28;20277;-54
2023/07/26 15:47:37;;;;;;;0.43;0.37;;;;;;;;;;5072815;28;20404;-57
2023/07/26 15:50:02;;;;;;;0.55;0.40;;;;;;;;;;5065994;28;20690;-55
2023/07/26 15:52:28;;;;;;;0.82;0.30;;;;;;;;;;5068075;28;20013;-55
2023/07/26 15:54:53;;;;;;;0.40;0.17;;;;;;;;;;5072794;28;20584;-53
2023/07/26 15:57:18;;;;;;;0.65;0.20;;;;;;;;;;5086771;28;20441;-55
2023/07/26 15:59:44;;;;;;;0.20;0.15;;;;;;;;;;5067733;28;20031;-58
2023/07/26 16:02:10;;;;;;;1.38;0.22;;;;;;;;;;5087015;28;20564;-56
2023/07/26 16:04:35;;;;;;;3.03;0.20;;;;;;;;;;5084866;28;20474;-54
2023/07/26 16:07:00;;;;;;;0.40;0.10;;;;;;;;;;5067815;28;20073;-57
2023/07/26 16:09:26;;;;;;;3.30;0.20;;;;;;;;;;5066544;28;20610;-54
2023/07/26 16:11:51;;;;;;;1.25;0.25;;;;;;;;;;5084366;28;20495;-55
2023/07/26 16:14:17;;;;;;;58.90;52.27;;;;;;;;;;5087004;28;20026;-53
2023/07/26 16:16:42;;;;;;;1.10;0.10;;;;;;;;;;5045544;28;20287;-51
2023/07/26 16:19:07;;;;;;;0.35;0.30;;;;;;;;;;5086401;28;20008;-54
2023/07/26 16:21:33;;;;;;;0.25;0.17;;;;;;;;;;5071614;28;20029;-52
2023/07/26 16:23:59;;;;;;;0.43;0.40;;;;;;;;;;5066068;28;20090;-54
2023/07/26 16:26:24;;;;;;;0.35;0.17;;;;;;;;;;5066326;28;20100;-54
2023/07/26 16:28:50;;;;;;;0.15;0.15;;;;;;;;;;5063274;28;20039;-54
2023/07/26 16:31:15;;;;;;;0.17;0.10;;;;;;;;;;5075780;28;20516;-56
2023/07/26 16:33:41;;;;;;;1.00;0.20;;;;;;;;;;5067394;28;20487;-54
2023/07/26 16:36:06;;;;;;;0.10;0.10;;;;;;;;;;5077635;28;20523;-53
2023/07/26 16:38:32;;;;;;;0.10;0.10;;;;;;;;;;5087136;28;20020;-57
2023/07/26 16:40:57;;;;;;;1.97;0.30;;;;;;;;;;5085847;28;20038;-53
2023/07/26 16:43:22;;;;;;;0.73;0.20;;;;;;;;;;5086838;28;20254;-57
2023/07/26 16:45:48;;;;;;;0.10;0.10;;;;;;;;;;5077134;28;20052;-54
2023/07/26 16:48:13;;;;;;;2.00;0.50;;;;;;;;;;5083537;28;20048;-54
2023/07/26 16:50:39;;;;;;;1.60;0.20;;;;;;;;;;5073481;28;20498;-54
2023/07/26 16:53:04;;;;;;;0.30;0.20;;;;;;;;;;5086089;28;20030;-54
2023/07/26 16:55:29;;;;;;;2.28;0.20;;;;;;;;;;5084126;28;20024;-53
2023/07/26 16:57:55;;;;;;;0.15;0.15;;;;;;;;;;5085777;28;20035;-53
2023/07/26 17:00:21;;;;;;;1.02;0.30;;;;;;;;;;5085107;28;20547;-57
2023/07/26 17:02:46;;;;;;;1.33;0.40;;;;;;;;;;5085918;28;20111;-49
2023/07/26 17:05:12;;;;;;;0.35;0.20;;;;;;;;;;5076864;28;20031;-55
2023/07/26 17:07:37;;;;;;;3.83;0.20;;;;;;;;;;5085520;28;20465;-56
2023/07/26 17:10:03;;;;;;;0.20;0.10;;;;;;;;;;5081283;28;20091;-55
2023/07/26 17:12:29;;;;;;;1.05;0.25;;;;;;;;;;5085057;28;20020;-57
2023/07/26 17:14:54;;;;;;;1.25;0.40;;;;;;;;;;5081682;28;20493;-57
2023/07/26 17:17:20;;;;;;;0.88;0.35;;;;;;;;;;5084506;28;20482;-57
2023/07/26 17:19:45;;;;;;;0.22;0.22;;;;;;;;;;5085264;28;20441;-55
2023/07/26 17:22:11;;;;;;;3.07;0.30;;;;;;;;;;5085033;28;20475;-55
2023/07/26 17:24:37;;;;;;;0.10;0.10;;;;;;;;;;5049012;28;20779;-52
2023/07/26 17:27:02;;;;;;;0.30;0.20;;;;;;;;;;5085526;28;20090;-54
2023/07/26 17:29:28;;;;;;;1.73;0.30;;;;;;;;;;5085353;28;20090;-51
2023/07/26 17:31:53;;;;;;;0.35;0.32;;;;;;;;;;5078560;28;20476;-55
2023/07/26 17:34:19;;;;;;;0.65;0.25;;;;;;;;;;5065935;28;20020;-52
2023/07/26 17:36:45;;;;;;;0.65;0.30;;;;;;;;;;5068770;28;20028;-55
2023/07/26 17:39:10;;;;;;;1.45;0.35;;;;;;;;;;5065034;28;20553;-52
2023/07/26 17:41:36;;;;;;;0.22;0.20;;;;;;;;;;5080095;28;20032;-54
2023/07/26 17:44:02;;;;;;;0.82;0.28;;;;;;;;;;5084977;28;20081;-53
2023/07/26 17:46:29;;;;;;;0.30;0.30;;;;;;;;;;5031388;28;20040;-55
2023/07/26 17:48:55;;;;;;;1.10;0.20;;;;;;;;;;5071810;28;20325;-56
2023/07/26 17:51:20;;;;;;;1.85;0.20;;;;;;;;;;5067045;28;20369;-52
2023/07/26 17:53:46;;;;;;;0.40;0.20;;;;;;;;;;5064450;28;20036;-55
2023/07/26 17:56:11;;;;;;;3.00;0.20;;;;;;;;;;5076403;28;20076;-54
2023/07/26 17:58:36;;;;;;;0.30;0.22;;;;;;;;;;5077510;28;20047;-57
2023/07/26 18:01:03;;;;;;;0.75;0.20;;;;;;;;;;5038128;28;20059;-53
2023/07/26 18:03:29;;;;;;;0.68;0.35;;;;;;;;;;5028447;28;20047;-55
2023/07/26 18:05:59;;;;;;;0.38;0.30;;;;;;;;;;5074279;28;20021;-57
2023/07/26 18:08:24;;;;;;;0.20;0.20;;;;;;;;;;5082914;28;20024;-56
2023/07/26 18:10:59;;;;;;;0.85;0.22;;;;;;;;;;5019130;28;20041;-55
2023/07/26 18:13:25;;;;;;;2.00;0.20;;;;;;;;;;5064876;28;20384;-57
2023/07/26 18:16:03;;;;;;;1.33;0.28;;;;;;;;;;5079716;28;20023;-57
2023/07/26 18:18:29;;;;;;;1.10;0.20;;;;;;;;;;5084556;28;20020;-56
2023/07/26 18:20:57;;;;;;;0.10;0.10;;;;;;;;;;5066986;28;20043;-55
2023/07/26 18:23:22;;;;;;;0.77;0.43;;;;;;;;;;5063888;28;20103;-56
2023/07/26 18:25:48;;;;;;;0.43;0.40;;;;;;;;;;5071767;28;20135;-48
2023/07/26 18:28:13;;;;;;;0.10;0.10;;;;;;;;;;5084525;28;20553;-50
2023/07/26 18:30:39;;;;;;;2.17;0.30;;;;;;;;;;5081232;28;20063;-56
2023/07/26 18:33:04;;;;;;;0.60;0.30;;;;;;;;;;5068384;28;20528;-55
2023/07/26 18:35:30;;;;;;;1.75;0.25;;;;;;;;;;5070003;28;20077;-53
2023/07/26 18:37:56;;;;;;;3.35;0.40;;;;;;;;;;5084045;28;20546;-54
2023/07/26 18:40:22;;;;;;;0.40;0.32;;;;;;;;;;5028011;28;20518;-56
2023/07/26 18:42:48;;;;;;;0.30;0.30;;;;;;;;;;5064001;28;20031;-55
2023/07/26 18:45:14;;;;;;;4.25;0.40;;;;;;;;;;5065197;28;20035;-57
2023/07/26 18:47:40;;;;;;;0.73;0.20;;;;;;;;;;4995388;28;20032;-54
2023/07/26 18:50:06;;;;;;;1.08;0.30;;;;;;;;;;5065905;28;20119;-59
2023/07/26 18:52:32;;;;;;;3.42;0.40;;;;;;;;;;5080190;28;20024;-53
2023/07/26 18:54:57;;;;;;;0.32;0.32;;;;;;;;;;5082734;28;20447;-51
2023/07/26 18:57:22;;;;;;;0.47;0.22;;;;;;;;;;5084063;28;20020;-55
2023/07/26 18:59:48;;;;;;;0.52;0.38;;;;;;;;;;5083074;28;20028;-53
2023/07/26 19:02:14;;;;;;;1.45;0.43;;;;;;;;;;5078846;28;20063;-57
2023/07/26 19:04:39;;;;;;;0.15;0.15;;;;;;;;;;5031782;28;20020;-53
2023/07/26 19:07:05;;;;;;;0.47;0.40;;;;;;;;;;5064831;28;20020;-55
2023/07/26 19:09:31;;;;;;;0.20;0.20;;;;;;;;;;5063605;28;20491;-55
2023/07/26 19:11:56;;;;;;;0.95;0.40;;;;;;;;;;5081282;28;20510;-53
2023/07/26 19:14:22;;;;;;;0.38;0.38;;;;;;;;;;5083515;28;20020;-54
2023/07/26 19:16:48;;;;;;;0.47;0.30;;;;;;;;;;5078946;28;20026;-57
2023/07/26 19:19:13;;;;;;;0.47;0.35;;;;;;;;;;5083710;28;20024;-51
2023/07/26 19:21:39;;;;;;;1.58;0.43;;;;;;;;;;5068093;28;20102;-55
2023/07/26 19:24:05;;;;;;;0.80;0.40;;;;;;;;;;5062723;28;20460;-50
2023/07/26 19:26:30;;;;;;;2.17;0.32;;;;;;;;;;5076780;28;20020;-52
2023/07/26 19:28:57;;;;;;;0.40;0.35;;;;;;;;;;5063161;28;20029;-56
2023/07/26 19:31:23;;;;;;;0.95;0.40;;;;;;;;;;5075340;28;20147;-58
2023/07/26 19:33:48;;;;;;;0.20;0.20;;;;;;;;;;5063607;28;20012;-57
2023/07/26 19:36:14;;;;;;;0.38;0.38;;;;;;;;;;5065107;28;20030;-57
2023/07/26 19:38:39;;;;;;;1.25;0.30;;;;;;;;;;5070318;28;20039;-52
2023/07/26 19:41:09;;;;;;;0.85;0.40;;;;;;;;;;5081971;28;20475;-55
2023/07/26 19:43:35;;;;;;;0.50;0.40;;;;;;;;;;5083643;28;20102;-54
2023/07/26 19:46:01;;;;;;;0.70;0.60;;;;;;;;;;5072745;28;20515;-53
2023/07/26 19:48:27;;;;;;;0.68;0.50;;;;;;;;;;5076864;28;20141;-57
2023/07/26 19:50:54;;;;;;;0.65;0.65;;;;;;;;;;5076642;28;20410;-53
2023/07/26 19:53:20;;;;;;;2.72;0.43;;;;;;;;;;5044001;28;20081;-55
2023/07/26 19:55:45;;;;;;;0.43;0.43;;;;;;;;;;5063432;28;20028;-55
2023/07/26 19:58:12;;;;;;;1.17;0.70;;;;;;;;;;5063011;28;20024;-53
2023/07/26 20:00:37;;;;;;;0.40;0.40;;;;;;;;;;5070183;28;20040;-53
2023/07/26 20:03:03;;;;;;;1.05;0.50;;;;;;;;;;5083258;28;20118;-54
2023/07/26 20:05:28;;;;;;;0.50;0.50;;;;;;;;;;5082348;28;20059;-55
2023/07/26 20:07:54;;;;;;;2.15;0.55;;;;;;;;;;5030137;28;20792;-54
2023/07/26 20:10:20;;;;;;;0.68;0.50;;;;;;;;;;5029061;28;20574;-57
2023/07/26 20:12:45;;;;;;;0.40;0.40;;;;;;;;;;5024615;28;20039;-53
2023/07/26 20:15:11;;;;;;;1.13;0.60;;;;;;;;;;5081269;28;20127;-54
2023/07/26 20:17:36;;;;;;;1.08;0.57;;;;;;;;;;5082885;28;20337;-53
2023/07/26 20:20:02;;;;;;;2.65;0.80;;;;;;;;;;5080621;28;20031;-55
2023/07/26 20:22:27;;;;;;;1.40;0.70;;;;;;;;;;5062799;28;20017;-53
2023/07/26 20:24:53;;;;;;;1.17;0.63;;;;;;;;;;5062841;28;20055;-52
2023/07/26 20:27:19;;;;;;;1.63;0.77;;;;;;;;;;5030064;28;20032;-54
2023/07/26 20:29:44;;;;;;;1.42;0.70;;;;;;;;;;5081908;28;20045;-56
2023/07/26 20:32:11;;;;;;;0.95;0.52;;;;;;;;;;5074807;28;20031;-54
2023/07/26 20:34:36;;;;;;;0.85;0.68;;;;;;;;;;5073158;28;20016;-54
2023/07/26 20:37:02;;;;;;;3.25;1.35;;;;;;;;;;5082325;28;20043;-55
2023/07/26 20:39:28;;;;;;;1.00;0.60;;;;;;;;;;5033414;28;20527;-56
2023/07/26 20:41:53;;;;;;;0.70;0.70;;;;;;;;;;5032514;28;20093;-52
2023/07/26 20:44:19;;;;;;;0.50;0.50;;;;;;;;;;5086366;28;20076;-56
2023/07/26 20:46:44;;;;;;;2.03;0.70;;;;;;;;;;5045971;28;20048;-55
2023/07/26 20:49:10;;;;;;;2.65;0.60;;;;;;;;;;5082189;28;20426;-54
2023/07/26 20:51:39;;;;;;;1.60;0.88;;;;;;;;;;5081611;28;20036;-56
2023/07/26 20:54:04;;;;;;;2.58;0.80;;;;;;;;;;5014464;28;20048;-55
2023/07/26 20:56:30;;;;;;;2.85;0.70;;;;;;;;;;5047861;28;20028;-52
2023/07/26 20:58:56;;;;;;;1.70;0.90;;;;;;;;;;5066417;28;20016;-55
2023/07/26 21:01:21;;;;;;;1.63;1.00;;;;;;;;;;5079276;28;20039;-51
2023/07/26 21:03:46;;;;;;;1.00;0.73;;;;;;;;;;5075292;28;20175;-52
2023/07/26 21:06:11;;;;;;;1.77;0.90;;;;;;;;;;5077808;28;20020;-56
2023/07/26 21:08:37;;;;;;;3.00;0.70;;;;;;;;;;5086073;28;20395;-55
2023/07/26 21:11:02;;;;;;;5.18;1.23;;;;;;;;;;5031685;28;20269;-55
2023/07/26 21:13:27;;;;;;;0.80;0.80;;;;;;;;;;5067567;28;20023;-55
2023/07/26 21:15:54;;;;;;;1.30;0.70;;;;;;;;;;5071446;28;20013;-55
2023/07/26 21:18:20;;;;;;;1.13;1.00;;;;;;;;;;5081113;28;20035;-52
2023/07/26 21:20:47;;;;;;;1.67;0.95;;;;;;;;;;5065833;28;20115;-56
2023/07/26 21:23:12;;;;;;;1.35;1.00;;;;;;;;;;5085336;28;20028;-54
2023/07/26 21:25:43;;;;;;;1.77;1.05;;;;;;;;;;5083555;28;20031;-51
2023/07/26 21:28:09;;;;;;;1.88;1.00;;;;;;;;;;5082958;28;20407;-50
2023/07/26 21:30:34;;;;;;;1.90;0.90;;;;;;;;;;5085034;28;20194;-54
2023/07/26 21:32:59;;;;;;;1.35;0.88;;;;;;;;;;5070875;28;20131;-55
2023/07/26 21:35:24;;;;;;;1.20;1.10;;;;;;;;;;5070580;28;20475;-56
2023/07/26 21:37:50;;;;;;;1.80;1.07;;;;;;;;;;5076184;28;20290;-55
2023/07/26 21:40:15;;;;;;;0.90;0.90;;;;;;;;;;5073931;28;20288;-57
2023/07/26 21:42:40;;;;;;;1.30;1.00;;;;;;;;;;5069272;28;20320;-52
2023/07/26 21:45:06;;;;;;;3.47;1.02;;;;;;;;;;5066108;28;20555;-57
2023/07/26 21:47:31;;;;;;;2.55;1.10;;;;;;;;;;5066768;28;20028;-56
2023/07/26 21:49:56;;;;;;;2.67;1.05;;;;;;;;;;5068025;28;20492;-55
2023/07/26 21:52:21;;;;;;;1.48;0.95;;;;;;;;;;5065517;28;20115;-56
2023/07/26 21:54:47;;;;;;;2.85;1.10;;;;;;;;;;5065268;28;20025;-55
2023/07/26 21:57:12;;;;;;;7.00;1.10;;;;;;;;;;5048496;28;20388;-52
2023/07/26 21:59:37;;;;;;;1.20;1.05;;;;;;;;;;5084994;28;20027;-55
2023/07/26 22:02:03;;;;;;;2.40;1.27;;;;;;;;;;5066165;28;20040;-52
2023/07/26 22:04:28;;;;;;;1.75;1.10;;;;;;;;;;5064939;28;20452;-57
2023/07/26 22:06:53;;;;;;;5.82;1.30;;;;;;;;;;5081540;28;20024;-50